sensor_id;sensor_type;location;lat;lon;timestamp;P1;durP1;ratioP1;P2;durP2;ratioP2
70078;SDS011;57451;52.496;13.456;2022-09-02T00:01:12;5.33;;;1.20;;
70078;SDS011;57451;52.496;13.456;2022-09-02T00:03:41;3.08;;;1.10;;
70078;SDS011;57451;52.496;13.456;2022-09-02T00:06:09;3.10;;;1.20;;
70078;SDS011;57451;52.496;13.456;2022-09-02T00:08:36;4.60;;;1.40;;
70078;SDS011;57451;52.496;13.456;2022-09-02T00:11:02;4.15;;;1.35;;
70078;SDS011;57451;52.496;13.456;2022-09-02T00:13:31;4.67;;;1.30;;
70078;SDS011;57451;52.496;13.456;2022-09-02T00:15:57;3.38;;;1.20;;
70078;SDS011;57451;52.496;13.456;2022-09-02T00:18:23;4.45;;;1.50;;
70078;SDS011;57451;52.496;13.456;2022-09-02T00:20:50;3.55;;;1.40;;
70078;SDS011;57451;52.496;13.456;2022-09-02T00:23:18;4.65;;;1.40;;
70078;SDS011;57451;52.496;13.456;2022-09-02T00:25:45;3.53;;;1.40;;
70078;SDS011;57451;52.496;13.456;2022-09-02T00:28:12;4.95;;;1.40;;
70078;SDS011;57451;52.496;13.456;2022-09-02T00:30:39;3.53;;;1.20;;
70078;SDS011;57451;52.496;13.456;2022-09-02T00:33:06;4.60;;;1.30;;
70078;SDS011;57451;52.496;13.456;2022-09-02T00:35:33;4.47;;;1.48;;
70078;SDS011;57451;52.496;13.456;2022-09-02T00:38:00;4.07;;;1.43;;
70078;SDS011;57451;52.496;13.456;2022-09-02T00:40:27;4.28;;;1.35;;
70078;SDS011;57451;52.496;13.456;2022-09-02T00:42:53;4.25;;;1.40;;
70078;SDS011;57451;52.496;13.456;2022-09-02T00:45:20;3.72;;;1.38;;
70078;SDS011;57451;52.496;13.456;2022-09-02T00:47:47;3.47;;;1.30;;
70078;SDS011;57451;52.496;13.456;2022-09-02T00:50:17;4.23;;;1.33;;
70078;SDS011;57451;52.496;13.456;2022-09-02T00:52:47;3.22;;;1.10;;
70078;SDS011;57451;52.496;13.456;2022-09-02T00:55:19;3.88;;;1.58;;
70078;SDS011;57451;52.496;13.456;2022-09-02T00:57:49;4.20;;;1.30;;
70078;SDS011;57451;52.496;13.456;2022-09-02T01:00:20;3.88;;;1.30;;
70078;SDS011;57451;52.496;13.456;2022-09-02T01:02:50;4.27;;;1.33;;
70078;SDS011;57451;52.496;13.456;2022-09-02T01:05:22;4.32;;;1.13;;
70078;SDS011;57451;52.496;13.456;2022-09-02T01:07:50;3.95;;;1.60;;
70078;SDS011;57451;52.496;13.456;2022-09-02T01:10:20;3.30;;;1.30;;
70078;SDS011;57451;52.496;13.456;2022-09-02T01:12:53;3.20;;;1.30;;
70078;SDS011;57451;52.496;13.456;2022-09-02T01:15:20;3.57;;;1.30;;
70078;SDS011;57451;52.496;13.456;2022-09-02T01:17:47;3.67;;;1.55;;
70078;SDS011;57451;52.496;13.456;2022-09-02T01:20:18;4.60;;;1.38;;
70078;SDS011;57451;52.496;13.456;2022-09-02T01:22:51;4.57;;;1.20;;
70078;SDS011;57451;52.496;13.456;2022-09-02T01:25:19;3.45;;;1.30;;
70078;SDS011;57451;52.496;13.456;2022-09-02T01:27:47;3.83;;;1.37;;
70078;SDS011;57451;52.496;13.456;2022-09-02T01:30:19;4.95;;;1.13;;
70078;SDS011;57451;52.496;13.456;2022-09-02T01:32:48;3.05;;;1.20;;
70078;SDS011;57451;52.496;13.456;2022-09-02T01:35:14;2.90;;;1.10;;
70078;SDS011;57451;52.496;13.456;2022-09-02T01:37:41;3.15;;;1.40;;
70078;SDS011;57451;52.496;13.456;2022-09-02T01:40:13;5.27;;;1.27;;
70078;SDS011;57451;52.496;13.456;2022-09-02T01:42:41;3.85;;;1.33;;
70078;SDS011;57451;52.496;13.456;2022-09-02T01:45:09;4.18;;;1.20;;
70078;SDS011;57451;52.496;13.456;2022-09-02T01:47:36;3.20;;;1.55;;
70078;SDS011;57451;52.496;13.456;2022-09-02T01:50:03;3.22;;;1.30;;
70078;SDS011;57451;52.496;13.456;2022-09-02T01:52:30;3.57;;;1.27;;
70078;SDS011;57451;52.496;13.456;2022-09-02T01:54:57;3.63;;;1.10;;
70078;SDS011;57451;52.496;13.456;2022-09-02T01:57:25;3.90;;;1.40;;
70078;SDS011;57451;52.496;13.456;2022-09-02T01:59:52;5.07;;;1.48;;
70078;SDS011;57451;52.496;13.456;2022-09-02T02:02:19;4.65;;;1.42;;
70078;SDS011;57451;52.496;13.456;2022-09-02T02:04:46;3.63;;;1.13;;
70078;SDS011;57451;52.496;13.456;2022-09-02T02:07:14;3.60;;;1.30;;
70078;SDS011;57451;52.496;13.456;2022-09-02T02:09:42;3.47;;;1.50;;
70078;SDS011;57451;52.496;13.456;2022-09-02T02:12:12;3.15;;;1.20;;
70078;SDS011;57451;52.496;13.456;2022-09-02T02:14:40;3.95;;;1.20;;
70078;SDS011;57451;52.496;13.456;2022-09-02T02:17:06;4.10;;;1.27;;
70078;SDS011;57451;52.496;13.456;2022-09-02T02:19:33;3.70;;;1.30;;
70078;SDS011;57451;52.496;13.456;2022-09-02T02:22:00;3.55;;;1.48;;
70078;SDS011;57451;52.496;13.456;2022-09-02T02:24:26;3.40;;;1.40;;
70078;SDS011;57451;52.496;13.456;2022-09-02T02:26:53;4.10;;;1.17;;
70078;SDS011;57451;52.496;13.456;2022-09-02T02:29:20;3.57;;;1.30;;
70078;SDS011;57451;52.496;13.456;2022-09-02T02:31:48;3.00;;;1.15;;
70078;SDS011;57451;52.496;13.456;2022-09-02T02:34:16;4.10;;;1.48;;
70078;SDS011;57451;52.496;13.456;2022-09-02T02:36:43;4.20;;;1.40;;
70078;SDS011;57451;52.496;13.456;2022-09-02T02:39:09;3.88;;;1.60;;
70078;SDS011;57451;52.496;13.456;2022-09-02T02:41:36;3.10;;;1.30;;
70078;SDS011;57451;52.496;13.456;2022-09-02T02:44:03;3.75;;;1.30;;
70078;SDS011;57451;52.496;13.456;2022-09-02T02:46:33;3.92;;;1.45;;
70078;SDS011;57451;52.496;13.456;2022-09-02T02:49:02;3.70;;;1.50;;
70078;SDS011;57451;52.496;13.456;2022-09-02T02:51:30;4.53;;;1.58;;
70078;SDS011;57451;52.496;13.456;2022-09-02T02:53:58;4.93;;;1.40;;
70078;SDS011;57451;52.496;13.456;2022-09-02T02:56:24;3.50;;;1.50;;
70078;SDS011;57451;52.496;13.456;2022-09-02T02:58:51;3.63;;;1.40;;
70078;SDS011;57451;52.496;13.456;2022-09-02T03:01:17;5.10;;;1.50;;
70078;SDS011;57451;52.496;13.456;2022-09-02T03:03:43;4.80;;;1.50;;
70078;SDS011;57451;52.496;13.456;2022-09-02T03:06:11;4.57;;;1.30;;
70078;SDS011;57451;52.496;13.456;2022-09-02T03:08:38;3.72;;;1.35;;
70078;SDS011;57451;52.496;13.456;2022-09-02T03:11:06;3.35;;;1.40;;
70078;SDS011;57451;52.496;13.456;2022-09-02T03:13:35;3.85;;;1.40;;
70078;SDS011;57451;52.496;13.456;2022-09-02T03:16:03;3.70;;;1.60;;
70078;SDS011;57451;52.496;13.456;2022-09-02T03:18:31;3.93;;;1.57;;
70078;SDS011;57451;52.496;13.456;2022-09-02T03:20:58;3.85;;;1.30;;
70078;SDS011;57451;52.496;13.456;2022-09-02T03:23:26;3.90;;;1.35;;
70078;SDS011;57451;52.496;13.456;2022-09-02T03:25:52;4.10;;;1.55;;
70078;SDS011;57451;52.496;13.456;2022-09-02T03:28:30;3.42;;;1.60;;
70078;SDS011;57451;52.496;13.456;2022-09-02T03:30:58;5.27;;;1.60;;
70078;SDS011;57451;52.496;13.456;2022-09-02T03:33:26;3.78;;;1.55;;
70078;SDS011;57451;52.496;13.456;2022-09-02T03:35:53;3.83;;;1.60;;
70078;SDS011;57451;52.496;13.456;2022-09-02T03:38:19;3.83;;;1.50;;
70078;SDS011;57451;52.496;13.456;2022-09-02T03:40:47;3.95;;;1.60;;
70078;SDS011;57451;52.496;13.456;2022-09-02T03:43:13;4.73;;;1.60;;
70078;SDS011;57451;52.496;13.456;2022-09-02T03:45:40;4.57;;;1.67;;
70078;SDS011;57451;52.496;13.456;2022-09-02T03:48:09;4.85;;;1.50;;
70078;SDS011;57451;52.496;13.456;2022-09-02T03:50:37;4.63;;;1.70;;
70078;SDS011;57451;52.496;13.456;2022-09-02T03:53:08;5.22;;;1.70;;
70078;SDS011;57451;52.496;13.456;2022-09-02T03:55:36;5.27;;;1.53;;
70078;SDS011;57451;52.496;13.456;2022-09-02T03:58:04;4.57;;;1.67;;
70078;SDS011;57451;52.496;13.456;2022-09-02T04:00:32;7.13;;;1.58;;
70078;SDS011;57451;52.496;13.456;2022-09-02T04:03:02;7.00;;;1.80;;
70078;SDS011;57451;52.496;13.456;2022-09-02T04:05:30;4.78;;;1.83;;
70078;SDS011;57451;52.496;13.456;2022-09-02T04:07:58;3.60;;;1.60;;
70078;SDS011;57451;52.496;13.456;2022-09-02T04:10:26;4.30;;;1.67;;
70078;SDS011;57451;52.496;13.456;2022-09-02T04:12:53;4.50;;;1.90;;
70078;SDS011;57451;52.496;13.456;2022-09-02T04:15:21;4.00;;;1.70;;
70078;SDS011;57451;52.496;13.456;2022-09-02T04:17:49;6.28;;;1.70;;
70078;SDS011;57451;52.496;13.456;2022-09-02T04:20:18;5.67;;;1.90;;
70078;SDS011;57451;52.496;13.456;2022-09-02T04:22:44;3.97;;;2.00;;
70078;SDS011;57451;52.496;13.456;2022-09-02T04:25:11;4.03;;;1.90;;
70078;SDS011;57451;52.496;13.456;2022-09-02T04:27:38;5.32;;;1.80;;
70078;SDS011;57451;52.496;13.456;2022-09-02T04:30:05;4.35;;;1.80;;
70078;SDS011;57451;52.496;13.456;2022-09-02T04:32:36;5.50;;;1.97;;
70078;SDS011;57451;52.496;13.456;2022-09-02T04:35:04;4.65;;;1.67;;
70078;SDS011;57451;52.496;13.456;2022-09-02T04:37:32;4.63;;;1.77;;
70078;SDS011;57451;52.496;13.456;2022-09-02T04:39:59;4.47;;;1.70;;
70078;SDS011;57451;52.496;13.456;2022-09-02T04:42:26;3.88;;;1.75;;
70078;SDS011;57451;52.496;13.456;2022-09-02T04:44:52;4.23;;;1.80;;
70078;SDS011;57451;52.496;13.456;2022-09-02T04:47:21;4.03;;;1.60;;
70078;SDS011;57451;52.496;13.456;2022-09-02T04:49:50;3.50;;;1.50;;
70078;SDS011;57451;52.496;13.456;2022-09-02T04:52:18;5.40;;;1.60;;
70078;SDS011;57451;52.496;13.456;2022-09-02T04:54:46;6.00;;;1.70;;
70078;SDS011;57451;52.496;13.456;2022-09-02T04:57:13;3.93;;;1.60;;
70078;SDS011;57451;52.496;13.456;2022-09-02T04:59:40;5.45;;;1.63;;
70078;SDS011;57451;52.496;13.456;2022-09-02T05:02:09;4.03;;;1.70;;
70078;SDS011;57451;52.496;13.456;2022-09-02T05:04:36;4.25;;;1.70;;
70078;SDS011;57451;52.496;13.456;2022-09-02T05:07:08;6.93;;;1.80;;
70078;SDS011;57451;52.496;13.456;2022-09-02T05:09:42;4.63;;;1.70;;
70078;SDS011;57451;52.496;13.456;2022-09-02T05:12:12;4.85;;;1.77;;
70078;SDS011;57451;52.496;13.456;2022-09-02T05:14:44;5.72;;;2.00;;
70078;SDS011;57451;52.496;13.456;2022-09-02T05:17:14;5.15;;;1.90;;
70078;SDS011;57451;52.496;13.456;2022-09-02T05:19:43;5.28;;;2.15;;
70078;SDS011;57451;52.496;13.456;2022-09-02T05:22:11;4.30;;;1.73;;
70078;SDS011;57451;52.496;13.456;2022-09-02T05:24:41;4.57;;;2.10;;
70078;SDS011;57451;52.496;13.456;2022-09-02T05:27:10;5.43;;;1.60;;
70078;SDS011;57451;52.496;13.456;2022-09-02T05:29:38;4.53;;;1.80;;
70078;SDS011;57451;52.496;13.456;2022-09-02T05:32:06;5.05;;;1.88;;
70078;SDS011;57451;52.496;13.456;2022-09-02T05:34:33;3.87;;;1.67;;
70078;SDS011;57451;52.496;13.456;2022-09-02T05:37:01;5.18;;;2.00;;
70078;SDS011;57451;52.496;13.456;2022-09-02T05:39:31;5.55;;;1.60;;
70078;SDS011;57451;52.496;13.456;2022-09-02T05:41:58;4.25;;;1.73;;
70078;SDS011;57451;52.496;13.456;2022-09-02T05:44:24;4.32;;;1.80;;
70078;SDS011;57451;52.496;13.456;2022-09-02T05:46:53;9.13;;;2.10;;
70078;SDS011;57451;52.496;13.456;2022-09-02T05:49:21;3.78;;;1.92;;
70078;SDS011;57451;52.496;13.456;2022-09-02T05:51:53;4.88;;;2.10;;
70078;SDS011;57451;52.496;13.456;2022-09-02T05:54:28;4.93;;;2.03;;
70078;SDS011;57451;52.496;13.456;2022-09-02T05:57:01;4.03;;;1.92;;
70078;SDS011;57451;52.496;13.456;2022-09-02T05:59:30;5.37;;;2.20;;
70078;SDS011;57451;52.496;13.456;2022-09-02T06:02:00;5.22;;;1.83;;
70078;SDS011;57451;52.496;13.456;2022-09-02T06:04:27;5.75;;;2.00;;
70078;SDS011;57451;52.496;13.456;2022-09-02T06:06:55;5.00;;;1.90;;
70078;SDS011;57451;52.496;13.456;2022-09-02T06:09:22;3.92;;;2.00;;
70078;SDS011;57451;52.496;13.456;2022-09-02T06:11:50;4.47;;;1.93;;
70078;SDS011;57451;52.496;13.456;2022-09-02T06:14:22;7.88;;;2.10;;
70078;SDS011;57451;52.496;13.456;2022-09-02T06:16:51;4.50;;;1.88;;
70078;SDS011;57451;52.496;13.456;2022-09-02T06:19:25;8.90;;;1.98;;
70078;SDS011;57451;52.496;13.456;2022-09-02T06:21:55;5.80;;;1.80;;
70078;SDS011;57451;52.496;13.456;2022-09-02T06:24:24;4.50;;;1.93;;
70078;SDS011;57451;52.496;13.456;2022-09-02T06:26:53;5.38;;;1.90;;
70078;SDS011;57451;52.496;13.456;2022-09-02T06:29:20;10.05;;;2.33;;
70078;SDS011;57451;52.496;13.456;2022-09-02T06:31:48;5.15;;;2.20;;
70078;SDS011;57451;52.496;13.456;2022-09-02T06:34:16;5.35;;;2.60;;
70078;SDS011;57451;52.496;13.456;2022-09-02T06:36:48;6.33;;;2.27;;
70078;SDS011;57451;52.496;13.456;2022-09-02T06:39:17;5.03;;;2.00;;
70078;SDS011;57451;52.496;13.456;2022-09-02T06:41:45;5.65;;;2.03;;
70078;SDS011;57451;52.496;13.456;2022-09-02T06:44:15;5.57;;;2.22;;
70078;SDS011;57451;52.496;13.456;2022-09-02T06:46:44;6.38;;;2.40;;
70078;SDS011;57451;52.496;13.456;2022-09-02T06:49:13;5.23;;;2.20;;
70078;SDS011;57451;52.496;13.456;2022-09-02T06:51:43;5.47;;;2.10;;
70078;SDS011;57451;52.496;13.456;2022-09-02T06:54:12;4.60;;;2.20;;
70078;SDS011;57451;52.496;13.456;2022-09-02T06:56:41;6.00;;;2.20;;
70078;SDS011;57451;52.496;13.456;2022-09-02T06:59:07;4.35;;;1.85;;
70078;SDS011;57451;52.496;13.456;2022-09-02T07:01:42;4.33;;;1.90;;
70078;SDS011;57451;52.496;13.456;2022-09-02T07:04:11;5.03;;;2.05;;
70078;SDS011;57451;52.496;13.456;2022-09-02T07:06:57;5.95;;;2.22;;
70078;SDS011;57451;52.496;13.456;2022-09-02T07:09:27;6.20;;;2.10;;
70078;SDS011;57451;52.496;13.456;2022-09-02T07:11:57;6.25;;;2.10;;
70078;SDS011;57451;52.496;13.456;2022-09-02T07:14:26;5.27;;;1.80;;
70078;SDS011;57451;52.496;13.456;2022-09-02T07:16:55;5.65;;;2.20;;
70078;SDS011;57451;52.496;13.456;2022-09-02T07:19:25;5.47;;;2.03;;
70078;SDS011;57451;52.496;13.456;2022-09-02T07:21:52;5.68;;;2.05;;
70078;SDS011;57451;52.496;13.456;2022-09-02T07:24:21;5.68;;;2.40;;
70078;SDS011;57451;52.496;13.456;2022-09-02T07:26:48;4.60;;;2.00;;
70078;SDS011;57451;52.496;13.456;2022-09-02T07:29:17;6.75;;;2.15;;
70078;SDS011;57451;52.496;13.456;2022-09-02T07:31:45;5.30;;;2.13;;
70078;SDS011;57451;52.496;13.456;2022-09-02T07:34:17;7.32;;;2.28;;
70078;SDS011;57451;52.496;13.456;2022-09-02T07:36:45;5.82;;;2.10;;
70078;SDS011;57451;52.496;13.456;2022-09-02T07:39:15;4.33;;;1.97;;
70078;SDS011;57451;52.496;13.456;2022-09-02T07:41:43;4.93;;;2.10;;
70078;SDS011;57451;52.496;13.456;2022-09-02T07:44:11;10.68;;;2.30;;
70078;SDS011;57451;52.496;13.456;2022-09-02T07:46:39;6.85;;;2.28;;
70078;SDS011;57451;52.496;13.456;2022-09-02T07:49:07;6.78;;;2.40;;
70078;SDS011;57451;52.496;13.456;2022-09-02T07:51:38;6.43;;;2.30;;
70078;SDS011;57451;52.496;13.456;2022-09-02T07:54:07;5.22;;;2.30;;
70078;SDS011;57451;52.496;13.456;2022-09-02T07:56:35;5.25;;;2.38;;
70078;SDS011;57451;52.496;13.456;2022-09-02T07:59:02;5.55;;;2.45;;
70078;SDS011;57451;52.496;13.456;2022-09-02T08:01:29;7.18;;;2.50;;
70078;SDS011;57451;52.496;13.456;2022-09-02T08:03:56;4.90;;;1.97;;
70078;SDS011;57451;52.496;13.456;2022-09-02T08:06:27;4.32;;;1.88;;
70078;SDS011;57451;52.496;13.456;2022-09-02T08:08:54;5.15;;;2.00;;
70078;SDS011;57451;52.496;13.456;2022-09-02T08:11:21;6.60;;;2.40;;
70078;SDS011;57451;52.496;13.456;2022-09-02T08:13:48;4.85;;;2.25;;
70078;SDS011;57451;52.496;13.456;2022-09-02T08:16:14;6.13;;;2.20;;
70078;SDS011;57451;52.496;13.456;2022-09-02T08:18:40;5.25;;;1.88;;
70078;SDS011;57451;52.496;13.456;2022-09-02T08:21:07;7.95;;;2.60;;
70078;SDS011;57451;52.496;13.456;2022-09-02T08:23:33;8.15;;;2.88;;
70078;SDS011;57451;52.496;13.456;2022-09-02T08:26:00;9.52;;;2.50;;
70078;SDS011;57451;52.496;13.456;2022-09-02T08:28:27;8.53;;;2.00;;
70078;SDS011;57451;52.496;13.456;2022-09-02T08:30:53;5.90;;;1.90;;
70078;SDS011;57451;52.496;13.456;2022-09-02T08:33:23;5.55;;;2.20;;
70078;SDS011;57451;52.496;13.456;2022-09-02T08:35:49;4.72;;;2.00;;
70078;SDS011;57451;52.496;13.456;2022-09-02T08:38:16;3.92;;;1.77;;
70078;SDS011;57451;52.496;13.456;2022-09-02T08:40:42;4.17;;;1.60;;
70078;SDS011;57451;52.496;13.456;2022-09-02T08:43:15;6.07;;;1.70;;
70078;SDS011;57451;52.496;13.456;2022-09-02T08:45:51;3.90;;;1.63;;
70078;SDS011;57451;52.496;13.456;2022-09-02T08:48:21;3.83;;;1.63;;
70078;SDS011;57451;52.496;13.456;2022-09-02T08:50:52;5.40;;;1.60;;
70078;SDS011;57451;52.496;13.456;2022-09-02T08:53:29;4.43;;;1.70;;
70078;SDS011;57451;52.496;13.456;2022-09-02T08:55:59;3.70;;;1.42;;
70078;SDS011;57451;52.496;13.456;2022-09-02T08:58:31;4.88;;;1.42;;
70078;SDS011;57451;52.496;13.456;2022-09-02T09:01:04;5.68;;;1.67;;
70078;SDS011;57451;52.496;13.456;2022-09-02T09:03:38;4.70;;;1.85;;
70078;SDS011;57451;52.496;13.456;2022-09-02T09:06:17;4.90;;;1.43;;
70078;SDS011;57451;52.496;13.456;2022-09-02T09:08:49;3.88;;;1.42;;
70078;SDS011;57451;52.496;13.456;2022-09-02T09:11:22;3.83;;;1.63;;
70078;SDS011;57451;52.496;13.456;2022-09-02T09:13:58;4.53;;;1.50;;
70078;SDS011;57451;52.496;13.456;2022-09-02T09:16:34;4.78;;;1.38;;
70078;SDS011;57451;52.496;13.456;2022-09-02T09:19:05;6.13;;;1.53;;
70078;SDS011;57451;52.496;13.456;2022-09-02T09:21:36;3.95;;;1.10;;
70078;SDS011;57451;52.496;13.456;2022-09-02T09:26:47;4.43;;;1.17;;
70078;SDS011;57451;52.496;13.456;2022-09-02T09:29:14;3.58;;;1.58;;
70078;SDS011;57451;52.496;13.456;2022-09-02T09:31:40;3.60;;;1.27;;
70078;SDS011;57451;52.496;13.456;2022-09-02T09:34:09;4.65;;;1.30;;
70078;SDS011;57451;52.496;13.456;2022-09-02T09:36:42;3.65;;;1.00;;
70078;SDS011;57451;52.496;13.456;2022-09-02T09:39:16;4.10;;;1.05;;
70078;SDS011;57451;52.496;13.456;2022-09-02T09:41:44;3.65;;;1.35;;
70078;SDS011;57451;52.496;13.456;2022-09-02T09:44:20;4.83;;;1.63;;
70078;SDS011;57451;52.496;13.456;2022-09-02T09:47:05;4.65;;;1.45;;
70078;SDS011;57451;52.496;13.456;2022-09-02T09:49:33;3.20;;;1.20;;
70078;SDS011;57451;52.496;13.456;2022-09-02T09:51:59;3.58;;;1.30;;
70078;SDS011;57451;52.496;13.456;2022-09-02T09:54:26;6.60;;;1.45;;
70078;SDS011;57451;52.496;13.456;2022-09-02T09:56:52;4.80;;;1.30;;
70078;SDS011;57451;52.496;13.456;2022-09-02T09:59:33;5.35;;;1.60;;
70078;SDS011;57451;52.496;13.456;2022-09-02T10:02:05;4.70;;;1.40;;
70078;SDS011;57451;52.496;13.456;2022-09-02T10:04:36;5.18;;;1.20;;
70078;SDS011;57451;52.496;13.456;2022-09-02T10:07:03;4.25;;;1.50;;
70078;SDS011;57451;52.496;13.456;2022-09-02T10:09:30;4.13;;;1.70;;
70078;SDS011;57451;52.496;13.456;2022-09-02T10:11:59;7.03;;;1.67;;
70078;SDS011;57451;52.496;13.456;2022-09-02T10:14:27;6.35;;;1.77;;
70078;SDS011;57451;52.496;13.456;2022-09-02T10:17:02;3.58;;;1.40;;
70078;SDS011;57451;52.496;13.456;2022-09-02T10:19:42;3.97;;;1.30;;
70078;SDS011;57451;52.496;13.456;2022-09-02T10:22:32;4.47;;;1.60;;
70078;SDS011;57451;52.496;13.456;2022-09-02T10:25:11;4.28;;;1.40;;
70078;SDS011;57451;52.496;13.456;2022-09-02T10:27:49;4.55;;;1.30;;
70078;SDS011;57451;52.496;13.456;2022-09-02T10:30:24;3.30;;;1.20;;
70078;SDS011;57451;52.496;13.456;2022-09-02T10:32:55;2.70;;;1.15;;
70078;SDS011;57451;52.496;13.456;2022-09-02T10:35:33;4.27;;;1.10;;
70078;SDS011;57451;52.496;13.456;2022-09-02T10:38:21;4.47;;;1.40;;
70078;SDS011;57451;52.496;13.456;2022-09-02T10:40:56;3.65;;;1.30;;
70078;SDS011;57451;52.496;13.456;2022-09-02T10:43:32;3.65;;;1.58;;
70078;SDS011;57451;52.496;13.456;2022-09-02T10:46:15;4.35;;;1.40;;
70078;SDS011;57451;52.496;13.456;2022-09-02T10:48:49;5.07;;;1.57;;
70078;SDS011;57451;52.496;13.456;2022-09-02T10:51:26;4.75;;;1.48;;
70078;SDS011;57451;52.496;13.456;2022-09-02T10:54:04;6.93;;;1.73;;
70078;SDS011;57451;52.496;13.456;2022-09-02T10:56:44;4.07;;;1.50;;
70078;SDS011;57451;52.496;13.456;2022-09-02T10:59:15;5.05;;;1.52;;
70078;SDS011;57451;52.496;13.456;2022-09-02T11:01:47;3.73;;;1.40;;
70078;SDS011;57451;52.496;13.456;2022-09-02T11:04:19;4.18;;;1.38;;
70078;SDS011;57451;52.496;13.456;2022-09-02T11:06:54;3.28;;;1.50;;
70078;SDS011;57451;52.496;13.456;2022-09-02T11:09:25;4.03;;;1.58;;
70078;SDS011;57451;52.496;13.456;2022-09-02T11:11:55;3.42;;;1.40;;
70078;SDS011;57451;52.496;13.456;2022-09-02T11:14:29;3.53;;;1.40;;
70078;SDS011;57451;52.496;13.456;2022-09-02T11:17:01;6.15;;;1.58;;
70078;SDS011;57451;52.496;13.456;2022-09-02T11:19:34;4.03;;;1.40;;
70078;SDS011;57451;52.496;13.456;2022-09-02T11:22:08;3.25;;;1.40;;
70078;SDS011;57451;52.496;13.456;2022-09-02T11:24:47;4.72;;;1.45;;
70078;SDS011;57451;52.496;13.456;2022-09-02T11:27:22;4.63;;;1.40;;
70078;SDS011;57451;52.496;13.456;2022-09-02T11:29:59;3.85;;;1.40;;
70078;SDS011;57451;52.496;13.456;2022-09-02T11:32:30;3.90;;;1.33;;
70078;SDS011;57451;52.496;13.456;2022-09-02T11:35:03;3.25;;;1.30;;
70078;SDS011;57451;52.496;13.456;2022-09-02T11:37:36;3.35;;;1.60;;
70078;SDS011;57451;52.496;13.456;2022-09-02T11:40:06;3.00;;;1.20;;
70078;SDS011;57451;52.496;13.456;2022-09-02T11:42:44;3.03;;;1.23;;
70078;SDS011;57451;52.496;13.456;2022-09-02T11:45:32;3.67;;;1.48;;
70078;SDS011;57451;52.496;13.456;2022-09-02T11:48:11;3.20;;;1.30;;
70078;SDS011;57451;52.496;13.456;2022-09-02T11:50:56;3.35;;;1.25;;
70078;SDS011;57451;52.496;13.456;2022-09-02T11:53:40;3.93;;;1.40;;
70078;SDS011;57451;52.496;13.456;2022-09-02T11:56:10;4.55;;;1.45;;
70078;SDS011;57451;52.496;13.456;2022-09-02T11:58:39;5.40;;;1.40;;
70078;SDS011;57451;52.496;13.456;2022-09-02T12:01:24;3.20;;;1.33;;
70078;SDS011;57451;52.496;13.456;2022-09-02T12:03:55;3.72;;;1.60;;
70078;SDS011;57451;52.496;13.456;2022-09-02T12:06:25;3.07;;;1.40;;
70078;SDS011;57451;52.496;13.456;2022-09-02T12:12:01;3.00;;;1.45;;
70078;SDS011;57451;52.496;13.456;2022-09-02T12:29:31;3.45;;;1.50;;
70078;SDS011;57451;52.496;13.456;2022-09-02T12:31:58;4.45;;;1.60;;
70078;SDS011;57451;52.496;13.456;2022-09-02T12:40:19;3.00;;;1.17;;
70078;SDS011;57451;52.496;13.456;2022-09-02T12:42:52;9.52;;;2.15;;
70078;SDS011;57451;52.496;13.456;2022-09-02T12:45:25;5.00;;;1.88;;
70078;SDS011;57451;52.496;13.456;2022-09-02T12:47:56;4.10;;;1.50;;
70078;SDS011;57451;52.496;13.456;2022-09-02T12:50:26;9.07;;;2.40;;
70078;SDS011;57451;52.496;13.456;2022-09-02T12:55:57;5.57;;;1.70;;
70078;SDS011;57451;52.496;13.456;2022-09-02T12:58:31;4.60;;;1.70;;
70078;SDS011;57451;52.496;13.456;2022-09-02T13:01:01;4.13;;;1.80;;
70078;SDS011;57451;52.496;13.456;2022-09-02T13:03:43;5.65;;;2.10;;
70078;SDS011;57451;52.496;13.456;2022-09-02T13:06:24;7.70;;;2.63;;
70078;SDS011;57451;52.496;13.456;2022-09-02T13:09:19;10.07;;;2.47;;
70078;SDS011;57451;52.496;13.456;2022-09-02T13:15:17;10.33;;;2.50;;
70078;SDS011;57451;52.496;13.456;2022-09-02T13:17:55;11.60;;;2.40;;
70078;SDS011;57451;52.496;13.456;2022-09-02T13:20:49;8.00;;;1.75;;
70078;SDS011;57451;52.496;13.456;2022-09-02T13:26:33;6.22;;;2.10;;
70078;SDS011;57451;52.496;13.456;2022-09-02T13:29:21;11.10;;;2.73;;
70078;SDS011;57451;52.496;13.456;2022-09-02T13:32:11;11.85;;;3.10;;
70078;SDS011;57451;52.496;13.456;2022-09-02T13:34:40;6.82;;;2.13;;
70078;SDS011;57451;52.496;13.456;2022-09-02T13:39:53;3.22;;;1.50;;
70078;SDS011;57451;52.496;13.456;2022-09-02T13:42:21;5.57;;;1.80;;
70078;SDS011;57451;52.496;13.456;2022-09-02T13:44:49;4.35;;;1.50;;
70078;SDS011;57451;52.496;13.456;2022-09-02T13:47:17;5.68;;;1.77;;
70078;SDS011;57451;52.496;13.456;2022-09-02T13:49:47;3.72;;;1.50;;
70078;SDS011;57451;52.496;13.456;2022-09-02T13:52:16;4.82;;;1.50;;
70078;SDS011;57451;52.496;13.456;2022-09-02T13:54:44;3.20;;;1.50;;
70078;SDS011;57451;52.496;13.456;2022-09-02T13:57:17;3.10;;;1.35;;
70078;SDS011;57451;52.496;13.456;2022-09-02T13:59:47;4.40;;;1.60;;
70078;SDS011;57451;52.496;13.456;2022-09-02T14:02:17;4.45;;;1.40;;
70078;SDS011;57451;52.496;13.456;2022-09-02T14:04:48;4.70;;;1.70;;
70078;SDS011;57451;52.496;13.456;2022-09-02T14:07:17;4.07;;;1.80;;
70078;SDS011;57451;52.496;13.456;2022-09-02T14:09:49;5.03;;;1.60;;
70078;SDS011;57451;52.496;13.456;2022-09-02T14:12:16;4.25;;;1.50;;
70078;SDS011;57451;52.496;13.456;2022-09-02T14:14:43;10.45;;;2.40;;
70078;SDS011;57451;52.496;13.456;2022-09-02T14:17:17;6.47;;;1.77;;
70078;SDS011;57451;52.496;13.456;2022-09-02T14:19:46;7.20;;;2.10;;
70078;SDS011;57451;52.496;13.456;2022-09-02T14:22:23;8.75;;;1.90;;
70078;SDS011;57451;52.496;13.456;2022-09-02T14:24:51;11.43;;;2.47;;
70078;SDS011;57451;52.496;13.456;2022-09-02T14:27:18;6.47;;;1.80;;
70078;SDS011;57451;52.496;13.456;2022-09-02T14:29:51;4.22;;;1.40;;
70078;SDS011;57451;52.496;13.456;2022-09-02T14:32:21;3.20;;;1.30;;
70078;SDS011;57451;52.496;13.456;2022-09-02T14:35:07;3.88;;;1.30;;
70078;SDS011;57451;52.496;13.456;2022-09-02T14:37:48;4.72;;;1.50;;
70078;SDS011;57451;52.496;13.456;2022-09-02T14:40:16;5.50;;;1.83;;
70078;SDS011;57451;52.496;13.456;2022-09-02T14:42:44;7.22;;;1.60;;
70078;SDS011;57451;52.496;13.456;2022-09-02T14:45:12;6.23;;;1.63;;
70078;SDS011;57451;52.496;13.456;2022-09-02T14:47:40;4.45;;;1.50;;
70078;SDS011;57451;52.496;13.456;2022-09-02T14:50:10;5.43;;;1.70;;
70078;SDS011;57451;52.496;13.456;2022-09-02T14:52:43;4.47;;;1.60;;
70078;SDS011;57451;52.496;13.456;2022-09-02T14:58:15;3.20;;;1.20;;
70078;SDS011;57451;52.496;13.456;2022-09-02T15:00:42;4.10;;;1.38;;
70078;SDS011;57451;52.496;13.456;2022-09-02T15:03:13;5.65;;;1.75;;
70078;SDS011;57451;52.496;13.456;2022-09-02T15:05:40;3.80;;;1.00;;
70078;SDS011;57451;52.496;13.456;2022-09-02T15:08:07;3.17;;;1.30;;
70078;SDS011;57451;52.496;13.456;2022-09-02T15:10:33;3.70;;;1.00;;
70078;SDS011;57451;52.496;13.456;2022-09-02T15:13:00;3.67;;;1.08;;
70078;SDS011;57451;52.496;13.456;2022-09-02T15:15:26;3.47;;;1.20;;
70078;SDS011;57451;52.496;13.456;2022-09-02T15:17:53;4.22;;;1.20;;
70078;SDS011;57451;52.496;13.456;2022-09-02T15:20:20;3.25;;;1.27;;
70078;SDS011;57451;52.496;13.456;2022-09-02T15:22:47;4.80;;;1.40;;
70078;SDS011;57451;52.496;13.456;2022-09-02T15:25:14;4.28;;;1.20;;
70078;SDS011;57451;52.496;13.456;2022-09-02T15:27:40;3.20;;;1.30;;
70078;SDS011;57451;52.496;13.456;2022-09-02T15:30:07;5.75;;;1.40;;
70078;SDS011;57451;52.496;13.456;2022-09-02T15:32:34;3.67;;;1.40;;